Accueil
METAR-TAF:

METAR-TAF

Aéroports :

Aéroport international Angoulême-Cognac

Angoulême, France

latitude: 45-43-46N, longitude: 00-13-08E, altitude: 132 m

Observation

Le bulletin a été fait il y a 47 minutes, à 11:00 UTC
Vent 6 kt de nord/nord-est, variant entre nord/nord-ouest et est
Température 12°C
Humidité 58%
Pression 1020 hPa
Visibilité 10 km ou plus
Quelques nuages à une hauteur de 3700 ft

METAR: LFBU 031100Z AUTO 02006KT 340V080 9999 FEW037 12/04 Q1020

Heure: 13:47 (11:47 UTC)


TAF: absent

Observations et prévisions météorologiques de plus de 4000 aéroports (messages METAR et TAF).

Les stations disponibles sont représentées par des disques jaunes et rouges sur la carte.

Passer la souris dessus pour voir le nom de la station.

Cliquer dessus pour voir les observations et prévisions météorologiques.

Pour changer de carte: cliquez sur les boutons verts avec une croix noire pour zoomer, sur le bouton vert avec un tiret pour effectuer un zoom arrière, ou sur les flèches vertes pour les cartes adjacentes.


METAR-TAF: